Time;durP1;ratioP1;P1;durP2;ratioP2;P2;SDS_P1;SDS_P2;PMS_P1;PMS_P2;Temp;Humidity;BMP_temperature;BMP_pressure;BME280_temperature;BME280_humidity;BME280_pressure;Samples;Min_cycle;Max_cycle;Signal;HPM_P1;HPM_P2
2022/08/11 00:03:56;;;;;;;4.20;1.45;;;;;;;21.75;31.47;101177.22;10494146;28;20195;-81
2022/08/11 00:09:21;;;;;;;3.50;1.17;;;;;;;21.75;31.52;101177.22;10485170;28;20227;-82
2022/08/11 00:14:43;;;;;;;6.57;1.50;;;;;;;21.58;32.43;101177.03;10491280;28;20688;-81
2022/08/11 00:20:08;;;;;;;2.22;1.50;;;;;;;21.52;31.47;101167.94;10491482;28;20273;-82
2022/08/11 00:25:36;;;;;;;3.13;1.48;;;;;;;21.60;31.88;101169.66;10497273;28;20191;-81
2022/08/11 00:31:02;;;;;;;5.50;1.50;;;;;;;21.01;32.33;101181.97;10469855;28;20195;-80
2022/08/11 00:36:48;;;;;;;4.95;2.05;;;;;;;21.23;31.96;101175.31;10495874;28;20215;-80
2022/08/11 00:42:44;;;;;;;2.42;1.75;;;;;;;20.83;32.84;101178.00;10499273;28;20190;-79
2022/08/11 00:48:18;;;;;;;4.57;1.50;;;;;;;21.01;33.01;101182.78;10501797;28;20241;-82
2022/08/11 00:53:47;;;;;;;3.83;1.80;;;;;;;20.40;33.71;101189.56;10459120;28;20253;-81
2022/08/11 00:59:47;;;;;;;3.25;1.52;;;;;;;20.23;34.55;101178.63;10461258;28;20587;-82
2022/08/11 01:05:37;;;;;;;2.58;1.48;;;;;;;20.69;33.86;101181.47;10506308;28;20199;-81
2022/08/11 01:11:24;;;;;;;5.15;1.88;;;;;;;20.71;33.74;101173.28;10499631;28;20230;-82
2022/08/11 01:17:13;;;;;;;11.13;2.72;;;;;;;20.49;34.14;101172.13;10500265;28;20207;-82
2022/08/11 01:23:02;;;;;;;2.47;1.45;;;;;;;20.29;34.35;101179.97;10486493;28;20206;-82
2022/08/11 01:29:03;;;;;;;5.28;1.88;;;;;;;20.71;33.52;101179.84;10519314;28;20187;-81
2022/08/11 01:34:25;;;;;;;5.97;1.77;;;;;;;20.49;34.15;101174.16;10508087;28;20487;-80
2022/08/11 01:40:11;;;;;;;5.00;1.85;;;;;;;20.21;34.67;101183.91;10510306;28;20214;-83
2022/08/11 01:45:45;;;;;;;5.00;2.00;;;;;;;20.22;34.33;101176.97;10512263;28;20207;-80
2022/08/11 01:51:19;;;;;;;5.97;1.67;;;;;;;20.09;35.03;101186.91;10486950;28;20195;-82
2022/08/11 01:56:55;;;;;;;5.60;2.00;;;;;;;20.30;34.96;101184.47;10485475;28;20665;-81
2022/08/11 02:02:46;;;;;;;5.10;2.10;;;;;;;20.09;35.13;101182.03;10460574;28;20183;-81
2022/08/11 02:08:33;;;;;;;3.38;1.95;;;;;;;19.61;36.72;101189.25;10496032;28;20207;-80
2022/08/11 02:14:29;;;;;;;5.45;1.90;;;;;;;19.92;36.13;101187.41;10494605;28;20684;-82
2022/08/11 02:25:55;;;;;;;2.25;1.55;;;;;;;19.57;36.26;101194.06;10486187;28;20195;-83
2022/08/11 02:37:33;;;;;;;3.75;1.73;;;;;;;19.26;37.02;101188.47;10490630;28;20231;-82
2022/08/11 02:43:21;;;;;;;3.35;1.85;;;;;;;19.22;36.92;101184.72;10502013;28;20236;-83
2022/08/11 02:55:00;;;;;;;8.68;2.17;;;;;;;19.33;36.17;101180.03;10535241;28;20190;-81
2022/08/11 03:00:24;;;;;;;4.45;2.38;;;;;;;19.62;36.18;101182.34;10544081;28;20213;-80
2022/08/11 03:06:04;;;;;;;3.83;2.30;;;;;;;19.48;36.40;101184.88;10503794;28;20668;-80
2022/08/11 03:18:08;;;;;;;5.80;2.03;;;;;;;19.45;36.24;101185.63;10520144;28;20281;-80
2022/08/11 03:23:56;;;;;;;9.23;2.28;;;;;;;19.57;36.45;101188.34;10540595;28;20198;-83
2022/08/11 03:29:22;;;;;;;4.28;1.88;;;;;;;19.06;37.24;101184.75;10519222;28;20232;-81
2022/08/11 03:34:47;;;;;;;6.35;2.03;;;;;;;19.06;37.24;101189.63;10529813;28;20264;-83
2022/08/11 03:40:09;;;;;;;3.50;2.35;;;;;;;18.94;37.43;101197.13;10527391;28;20238;-81
2022/08/11 03:46:07;;;;;;;4.80;2.13;;;;;;;18.85;37.81;101196.50;10532024;28;20201;-81
2022/08/11 03:52:06;;;;;;;4.43;2.30;;;;;;;18.76;38.04;101183.59;10517497;28;20195;-80
2022/08/11 03:57:44;;;;;;;6.65;2.25;;;;;;;18.69;38.76;101184.25;10487522;28;20725;-79
2022/08/11 04:03:24;;;;;;;5.10;1.90;;;;;;;18.85;38.08;101190.78;10516956;28;20260;-79
2022/08/11 04:08:52;;;;;;;3.10;2.00;;;;;;;18.79;38.37;101188.56;10509395;28;20271;-79
2022/08/11 04:20:57;;;;;;;6.63;2.42;;;;;;;18.61;38.21;101191.00;10539976;28;20214;-81
2022/08/11 04:26:56;;;;;;;2.85;2.30;;;;;;;18.73;37.50;101188.03;10527551;28;20251;-82
2022/08/11 04:32:53;;;;;;;6.40;2.50;;;;;;;18.85;37.53;101185.06;10543317;28;20652;-83
2022/08/11 04:38:44;;;;;;;6.00;2.03;;;;;;;18.94;37.31;101182.84;10538912;28;20586;-80
2022/08/11 04:44:32;;;;;;;5.65;2.55;;;;;;;19.29;36.98;101173.41;10495524;28;20210;-80
2022/08/11 05:02:17;;;;;;;6.78;2.13;;;;;;;19.11;37.96;101192.22;10529780;28;20194;-80
2022/08/11 05:08:06;;;;;;;4.97;2.33;;;;;;;19.51;37.22;101192.69;10508951;28;20218;-81
2022/08/11 05:36:56;;;;;;;5.53;2.85;;;;;;;19.81;36.86;101186.38;10521309;28;20199;-86
2022/08/11 05:59:44;;;;;;;9.13;3.25;;;;;;;20.03;36.97;101194.19;10511607;28;20219;-86
2022/08/11 06:05:07;;;;;;;8.57;2.80;;;;;;;19.48;37.51;101207.75;10520835;28;20199;-81
2022/08/11 06:10:32;;;;;;;9.80;3.47;;;;;;;20.54;35.94;101191.03;10524457;28;20230;-86
2022/08/11 06:15:56;;;;;;;9.98;2.72;;;;;;;20.73;35.74;101188.88;10510450;28;20206;-87
2022/08/11 06:21:20;;;;;;;8.40;3.05;;;;;;;20.79;35.61;101195.16;10514261;28;20241;-86
2022/08/11 06:26:48;;;;;;;6.05;2.63;;;;;;;20.48;36.01;101190.50;10534642;28;20251;-86
2022/08/11 06:32:12;;;;;;;7.47;2.58;;;;;;;20.64;34.57;101184.63;10528463;28;20220;-86
2022/08/11 06:38:00;;;;;;;5.10;2.60;;;;;;;20.89;33.95;101185.88;10521562;28;20202;-86
2022/08/11 06:43:23;;;;;;;8.30;2.40;;;;;;;20.66;34.64;101188.78;10525930;28;20194;-87
2022/08/11 06:48:45;;;;;;;5.18;2.20;;;;;;;20.58;34.75;101184.13;10514715;28;20199;-87
2022/08/11 06:54:11;;;;;;;8.65;3.00;;;;;;;20.57;35.49;101182.47;10529008;28;20209;-84
2022/08/11 07:05:22;;;;;;;6.93;2.72;;;;;;;21.50;33.40;101184.72;10523464;28;20194;-86
2022/08/11 07:16:57;;;;;;;6.30;3.00;;;;;;;21.76;32.23;101178.88;10542712;28;20224;-87
2022/08/11 07:33:49;;;;;;;7.95;2.85;;;;;;;22.61;31.26;101173.22;10527411;28;20202;-88
2022/08/11 07:39:19;;;;;;;7.38;2.90;;;;;;;22.81;31.59;101171.69;10546501;28;20271;-86
2022/08/11 07:56:06;;;;;;;4.53;2.55;;;;;;;23.55;28.76;101170.47;10514511;28;20256;-87
2022/08/11 08:18:33;;;;;;;8.68;2.78;;;;;;;24.17;29.79;101162.47;10529307;28;20206;-86
2022/08/11 08:23:57;;;;;;;9.43;2.70;;;;;;;24.50;28.05;101164.13;10527658;28;20538;-84
2022/08/11 08:35:02;;;;;;;7.45;2.42;;;;;;;24.69;28.05;101165.78;10513199;28;20202;-77
2022/08/11 08:40:24;;;;;;;7.82;2.15;;;;;;;25.04;28.12;101164.91;10528625;28;20210;-86
2022/08/11 08:45:46;;;;;;;5.57;2.50;;;;;;;25.17;27.21;101157.47;10537633;28;20199;-86
2022/08/11 08:56:54;;;;;;;8.07;2.38;;;;;;;25.33;27.29;101166.53;10530682;28;20243;-87
2022/08/11 09:02:18;;;;;;;5.90;2.38;;;;;;;25.32;26.73;101164.88;10541749;28;20280;-86
2022/08/11 09:07:41;;;;;;;9.13;2.45;;;;;;;25.58;26.91;101159.81;10542530;28;20614;-86
2022/08/11 09:13:05;;;;;;;5.80;2.15;;;;;;;25.78;26.35;101149.41;10528562;28;20691;-87
2022/08/11 09:18:27;;;;;;;7.57;2.33;;;;;;;25.87;26.52;101155.56;10510770;28;20248;-85
2022/08/11 09:29:31;;;;;;;5.75;2.13;;;;;;;25.89;25.39;101153.03;10520390;28;20202;-87
2022/08/11 09:34:54;;;;;;;5.55;1.95;;;;;;;26.13;24.86;101150.44;10486058;28;20187;-86
2022/08/11 09:40:28;;;;;;;4.30;2.05;;;;;;;26.77;22.97;101144.16;10508012;28;20560;-87
2022/08/11 09:45:51;;;;;;;6.95;2.22;;;;;;;25.88;23.99;101144.84;10511422;28;20194;-81
2022/08/11 09:51:14;;;;;;;7.63;2.28;;;;;;;27.17;22.97;101128.81;10532595;28;20202;-86
2022/08/11 10:02:22;;;;;;;6.45;1.98;;;;;;;27.19;21.44;101126.28;10533652;28;20696;-86
2022/08/11 10:07:49;;;;;;;5.20;2.20;;;;;;;27.57;20.23;101111.78;10527936;28;20532;-84
2022/08/11 10:13:24;;;;;;;1.70;1.60;;;;;;;27.47;19.77;101114.38;10487176;28;20214;-77
2022/08/11 10:18:51;;;;;;;5.13;1.83;;;;;;;28.09;20.76;101112.28;10493584;28;20207;-84
2022/08/11 10:35:57;;;;;;;3.75;1.85;;;;;;;27.96;21.24;101091.78;10483781;28;20203;-86
2022/08/11 11:04:10;;;;;;;5.40;1.70;;;;;;;27.40;20.33;101076.84;10493621;28;20351;-86
2022/08/11 11:09:42;;;;;;;4.28;1.75;;;;;;;27.98;20.45;101066.06;10499475;28;20218;-86
2022/08/11 11:20:56;;;;;;;4.43;1.83;;;;;;;27.49;21.21;101055.22;10533951;28;20268;-86
2022/08/11 11:26:30;;;;;;;4.35;1.80;;;;;;;28.12;20.13;101044.72;10529275;28;20252;-78
2022/08/11 11:32:18;;;;;;;9.38;2.40;;;;;;;27.68;20.55;101042.94;10510137;28;20499;-81
2022/08/11 11:37:45;;;;;;;4.43;1.83;;;;;;;28.06;20.33;101029.09;10541923;28;20656;-78
2022/08/11 11:43:07;;;;;;;4.35;1.95;;;;;;;28.43;19.06;101031.75;10529183;28;20218;-85
2022/08/11 11:48:30;;;;;;;2.05;1.63;;;;;;;28.28;19.39;101024.56;10511249;28;20198;-78
2022/08/11 11:53:53;;;;;;;4.88;2.03;;;;;;;27.69;21.18;101004.03;10528147;28;20190;-81
2022/08/11 12:04:57;;;;;;;3.58;1.70;;;;;;;28.04;20.78;101000.56;10523401;28;20190;-86
2022/08/11 12:10:19;;;;;;;5.63;1.83;;;;;;;27.96;20.57;100990.34;10494204;28;20272;-78
2022/08/11 12:15:41;;;;;;;4.53;1.83;;;;;;;29.01;20.69;100996.59;10501001;28;20194;-78
2022/08/11 12:21:04;;;;;;;5.15;2.30;;;;;;;29.50;19.56;100989.69;10476987;28;20241;-81
2022/08/11 12:32:08;;;;;;;2.58;1.98;;;;;;;29.03;18.93;100980.38;10483193;28;20593;-77
2022/08/11 12:37:36;;;;;;;7.13;2.63;;;;;;;29.33;18.72;100973.50;10505994;28;20200;-85
2022/08/11 12:54:44;;;;;;;5.50;1.65;;;;;;;29.18;19.00;100957.69;10478289;28;20222;-78
2022/08/11 13:05:52;;;;;;;6.82;2.97;;;;;;;29.05;18.81;100948.81;10480696;28;20662;-79
2022/08/11 13:22:39;;;;;;;3.17;2.25;;;;;;;29.75;17.48;100930.16;10563521;28;20253;-78
2022/08/11 13:28:02;;;;;;;5.53;1.75;;;;;;;29.43;17.69;100920.16;10558808;28;20201;-78
2022/08/11 13:33:24;;;;;;;5.22;1.85;;;;;;;29.35;17.72;100921.59;10548425;28;20250;-87
2022/08/11 13:38:47;;;;;;;3.58;1.75;;;;;;;29.62;17.58;100914.72;10560849;28;20266;-85
2022/08/11 13:44:12;;;;;;;6.90;2.88;;;;;;;30.19;17.39;100914.84;10545735;28;20202;-85
2022/08/11 13:49:36;;;;;;;4.00;1.73;;;;;;;30.28;16.65;100907.56;10558361;28;20198;-84
2022/08/11 13:54:58;;;;;;;8.38;5.57;;;;;;;30.38;16.82;100894.81;10543148;28;20215;-85
2022/08/11 14:00:20;;;;;;;5.80;1.73;;;;;;;30.33;16.79;100904.09;10548838;28;20243;-78
2022/08/11 14:05:47;;;;;;;2.35;1.85;;;;;;;29.36;18.14;100897.09;10540128;28;20290;-82
2022/08/11 14:16:53;;;;;;;3.80;1.70;;;;;;;30.01;17.53;100896.25;10565511;28;20239;-83
2022/08/11 14:22:15;;;;;;;4.65;2.53;;;;;;;30.50;17.15;100899.84;10536355;28;20241;-83
2022/08/11 14:27:37;;;;;;;5.25;1.38;;;;;;;30.28;16.96;100890.94;10548556;28;20672;-83
2022/08/11 14:33:00;;;;;;;4.30;1.85;;;;;;;29.90;17.61;100893.66;10576377;28;20252;-83
2022/08/11 14:38:22;;;;;;;4.63;1.88;;;;;;;30.13;17.33;100887.63;10579345;27;20201;-84
2022/08/11 14:49:26;;;;;;;4.47;1.90;;;;;;;30.24;17.97;100881.50;10575143;27;20240;-79
2022/08/11 15:00:33;;;;;;;3.95;2.28;;;;;;;29.56;17.69;100871.69;10552417;28;20217;-79
2022/08/11 15:05:58;;;;;;;5.47;1.95;;;;;;;29.66;17.51;100868.97;10561627;27;20288;-79
2022/08/11 15:17:11;;;;;;;4.93;1.80;;;;;;;29.51;17.48;100866.44;10569828;27;20201;-81
2022/08/11 15:45:49;;;;;;;4.88;2.15;;;;;;;29.06;17.55;100845.16;10554491;27;20229;-78
2022/08/11 15:51:21;;;;;;;5.85;2.40;;;;;;;29.11;17.99;100833.84;10576214;27;20258;-81
2022/08/11 15:56:45;;;;;;;7.45;4.90;;;;;;;29.05;18.24;100834.81;10561295;27;20277;-78
2022/08/11 16:07:53;;;;;;;5.45;3.70;;;;;;;28.84;18.13;100830.34;10560227;27;20298;-79
2022/08/11 16:18:43;;;;;;;5.93;3.85;;;;;;;28.83;17.94;100822.91;10549818;27;20255;-82
2022/08/11 16:24:06;;;;;;;21.50;15.18;;;;;;;28.71;17.66;100812.84;10542272;27;20686;-83
2022/08/11 16:29:30;;;;;;;7.90;3.92;;;;;;;29.26;18.09;100819.00;10560075;27;20609;-85
2022/08/11 16:40:43;;;;;;;13.75;11.25;;;;;;;28.61;17.74;100810.97;10573584;27;20238;-86
2022/08/11 16:51:47;;;;;;;6.40;2.88;;;;;;;28.33;18.88;100812.44;10563996;27;20251;-84
2022/08/11 17:14:47;;;;;;;3.38;1.92;;;;;;;28.19;18.76;100800.28;10599502;27;20677;-83
2022/08/11 17:20:14;;;;;;;3.53;2.65;;;;;;;28.22;19.33;100799.41;10547397;28;20557;-86
2022/08/11 17:25:36;;;;;;;5.03;2.70;;;;;;;28.21;19.04;100791.97;10554049;28;20250;-85
2022/08/11 17:36:43;;;;;;;3.53;2.55;;;;;;;28.19;19.31;100789.53;10558773;28;20202;-83
2022/08/11 18:04:53;;;;;;;4.30;2.30;;;;;;;27.42;19.82;100799.31;10572011;27;20247;-84
